Terminal Aerodrome Forecast
Issued by NWS Twin Cities, MN

Home | Current Version | Previous Version | Graphics & Text | Print | Product List | Glossary On
Versions: 1 2 3 4 5 6 7 8 9 10 11 12 13 14 15 16 17 18 19 20 21 22 23 24 25 26 27 28 29
000
FTUS43 KMPX 140320 AAB
TAFMSP
TAF AMD
KMSP 140320Z 1403/1506 14009KT P6SM -SHRA VCTS SCT035CB BKN050
      TEMPO 1403/1404 3SM SHRA BR BKN035
     FM140500 13005KT P6SM -SHRA SCT020 BKN040
      TEMPO 1406/1410 4SM SHRA BKN020
     FM141000 13007KT P6SM -SHRA OVC025
     FM141500 14004KT P6SM VCSH SCT008 BKN012 OVC030
     FM142100 VRB03KT P6SM BKN020
     FM150000 36005KT P6SM SCT025 BKN040=

USA.gov is the U.S. government's official web portal to all federal, state and local government web resources and services.